sensor_id;sensor_type;location;lat;lon;timestamp;pressure;altitude;pressure_sealevel;temperature
64458;BMP280;58438;51.200;7.252;2023-11-22T00:00:13;98365.97;;;4.84
64458;BMP280;58438;51.200;7.252;2023-11-22T00:03:00;98366.16;;;4.93
64458;BMP280;58438;51.200;7.252;2023-11-22T00:05:47;98382.19;;;5.00
64458;BMP280;58438;51.200;7.252;2023-11-22T00:08:34;98386.25;;;4.88
64458;BMP280;58438;51.200;7.252;2023-11-22T00:11:21;98385.13;;;4.89
64458;BMP280;58438;51.200;7.252;2023-11-22T00:14:09;98382.06;;;4.87
64458;BMP280;58438;51.200;7.252;2023-11-22T00:16:57;98376.31;;;4.85
64458;BMP280;58438;51.200;7.252;2023-11-22T00:19:46;98369.00;;;4.86
64458;BMP280;58438;51.200;7.252;2023-11-22T00:22:33;98373.63;;;4.85
64458;BMP280;58438;51.200;7.252;2023-11-22T00:25:20;98366.63;;;4.88
64458;BMP280;58438;51.200;7.252;2023-11-22T00:28:07;98370.72;;;4.96
64458;BMP280;58438;51.200;7.252;2023-11-22T00:30:54;98378.25;;;5.04
64458;BMP280;58438;51.200;7.252;2023-11-22T00:33:43;98382.81;;;5.07
64458;BMP280;58438;51.200;7.252;2023-11-22T00:36:30;98392.38;;;4.92
64458;BMP280;58438;51.200;7.252;2023-11-22T00:39:17;98399.06;;;5.03
64458;BMP280;58438;51.200;7.252;2023-11-22T00:42:05;98395.28;;;4.82
64458;BMP280;58438;51.200;7.252;2023-11-22T00:44:52;98387.31;;;4.94
64458;BMP280;58438;51.200;7.252;2023-11-22T00:47:39;98383.09;;;4.93
64458;BMP280;58438;51.200;7.252;2023-11-22T00:50:27;98398.00;;;4.82
64458;BMP280;58438;51.200;7.252;2023-11-22T00:53:15;98387.09;;;4.85
64458;BMP280;58438;51.200;7.252;2023-11-22T00:56:03;98380.28;;;4.81
64458;BMP280;58438;51.200;7.252;2023-11-22T00:58:50;98389.81;;;4.85
64458;BMP280;58438;51.200;7.252;2023-11-22T01:01:38;98398.06;;;4.78
64458;BMP280;58438;51.200;7.252;2023-11-22T01:04:27;98384.22;;;4.76
64458;BMP280;58438;51.200;7.252;2023-11-22T01:07:17;98394.53;;;4.81
64458;BMP280;58438;51.200;7.252;2023-11-22T01:10:08;98395.13;;;4.69
64458;BMP280;58438;51.200;7.252;2023-11-22T01:12:57;98393.00;;;4.80
64458;BMP280;58438;51.200;7.252;2023-11-22T01:15:47;98408.38;;;4.83
64458;BMP280;58438;51.200;7.252;2023-11-22T01:18:37;98412.44;;;4.72
64458;BMP280;58438;51.200;7.252;2023-11-22T01:21:31;98415.69;;;4.63
64458;BMP280;58438;51.200;7.252;2023-11-22T01:24:22;98409.56;;;4.82
64458;BMP280;58438;51.200;7.252;2023-11-22T01:27:13;98420.25;;;4.86
64458;BMP280;58438;51.200;7.252;2023-11-22T01:30:03;98413.78;;;4.83
64458;BMP280;58438;51.200;7.252;2023-11-22T01:32:54;98422.13;;;4.89
64458;BMP280;58438;51.200;7.252;2023-11-22T01:35:45;98428.78;;;4.84
64458;BMP280;58438;51.200;7.252;2023-11-22T01:38:35;98441.41;;;4.87
64458;BMP280;58438;51.200;7.252;2023-11-22T01:41:28;98447.44;;;4.75
64458;BMP280;58438;51.200;7.252;2023-11-22T01:44:18;98449.78;;;4.73
64458;BMP280;58438;51.200;7.252;2023-11-22T01:47:07;98460.84;;;4.59
64458;BMP280;58438;51.200;7.252;2023-11-22T01:49:57;98460.63;;;4.70
64458;BMP280;58438;51.200;7.252;2023-11-22T01:52:47;98472.41;;;4.56
64458;BMP280;58438;51.200;7.252;2023-11-22T01:55:37;98465.19;;;4.73
64458;BMP280;58438;51.200;7.252;2023-11-22T01:58:28;98482.41;;;4.59
64458;BMP280;58438;51.200;7.252;2023-11-22T02:01:18;98478.75;;;4.69
64458;BMP280;58438;51.200;7.252;2023-11-22T02:04:08;98481.72;;;4.75
64458;BMP280;58438;51.200;7.252;2023-11-22T02:06:58;98483.72;;;4.71
64458;BMP280;58438;51.200;7.252;2023-11-22T02:09:48;98482.91;;;4.74
64458;BMP280;58438;51.200;7.252;2023-11-22T02:12:41;98491.41;;;4.72
64458;BMP280;58438;51.200;7.252;2023-11-22T02:15:32;98502.31;;;4.65
64458;BMP280;58438;51.200;7.252;2023-11-22T02:18:22;98500.97;;;4.54
64458;BMP280;58438;51.200;7.252;2023-11-22T02:21:12;98497.88;;;4.55
64458;BMP280;58438;51.200;7.252;2023-11-22T02:24:04;98506.78;;;4.52
64458;BMP280;58438;51.200;7.252;2023-11-22T02:26:54;98499.22;;;4.44
64458;BMP280;58438;51.200;7.252;2023-11-22T02:29:44;98500.22;;;4.53
64458;BMP280;58438;51.200;7.252;2023-11-22T02:32:36;98491.28;;;4.56
64458;BMP280;58438;51.200;7.252;2023-11-22T02:35:25;98497.28;;;4.67
64458;BMP280;58438;51.200;7.252;2023-11-22T02:38:15;98494.53;;;4.71
64458;BMP280;58438;51.200;7.252;2023-11-22T02:41:06;98506.88;;;4.68
64458;BMP280;58438;51.200;7.252;2023-11-22T02:43:55;98501.78;;;4.74
64458;BMP280;58438;51.200;7.252;2023-11-22T02:46:42;98501.78;;;4.51
64458;BMP280;58438;51.200;7.252;2023-11-22T02:49:29;98494.03;;;4.53
64458;BMP280;58438;51.200;7.252;2023-11-22T02:52:16;98494.38;;;4.35
64458;BMP280;58438;51.200;7.252;2023-11-22T02:55:04;98472.84;;;4.32
64458;BMP280;58438;51.200;7.252;2023-11-22T02:57:53;98467.94;;;4.27
64458;BMP280;58438;51.200;7.252;2023-11-22T03:00:40;98466.69;;;4.31
64458;BMP280;58438;51.200;7.252;2023-11-22T03:03:27;98470.28;;;4.48
64458;BMP280;58438;51.200;7.252;2023-11-22T03:06:15;98481.00;;;4.51
64458;BMP280;58438;51.200;7.252;2023-11-22T03:09:03;98475.59;;;4.51
64458;BMP280;58438;51.200;7.252;2023-11-22T03:11:50;98483.53;;;4.62
64458;BMP280;58438;51.200;7.252;2023-11-22T03:14:39;98492.75;;;4.61
64458;BMP280;58438;51.200;7.252;2023-11-22T03:17:28;98504.97;;;4.46
64458;BMP280;58438;51.200;7.252;2023-11-22T03:20:15;98509.22;;;4.47
64458;BMP280;58438;51.200;7.252;2023-11-22T03:23:02;98523.00;;;4.49
64458;BMP280;58438;51.200;7.252;2023-11-22T03:25:50;98523.72;;;4.53
64458;BMP280;58438;51.200;7.252;2023-11-22T03:28:37;98538.19;;;4.39
64458;BMP280;58438;51.200;7.252;2023-11-22T03:31:26;98528.00;;;4.50
64458;BMP280;58438;51.200;7.252;2023-11-22T03:34:13;98537.88;;;4.34
64458;BMP280;58438;51.200;7.252;2023-11-22T03:37:00;98546.22;;;4.43
64458;BMP280;58438;51.200;7.252;2023-11-22T03:39:47;98549.91;;;4.52
64458;BMP280;58438;51.200;7.252;2023-11-22T03:42:35;98561.22;;;4.44
64458;BMP280;58438;51.200;7.252;2023-11-22T03:45:22;98562.91;;;4.34
64458;BMP280;58438;51.200;7.252;2023-11-22T03:48:11;98542.47;;;4.37
64458;BMP280;58438;51.200;7.252;2023-11-22T03:50:58;98551.56;;;4.20
64458;BMP280;58438;51.200;7.252;2023-11-22T03:53:46;98540.94;;;4.09
64458;BMP280;58438;51.200;7.252;2023-11-22T03:56:33;98542.16;;;4.31
64458;BMP280;58438;51.200;7.252;2023-11-22T03:59:20;98558.22;;;4.38
64458;BMP280;58438;51.200;7.252;2023-11-22T04:02:08;98555.88;;;4.40
64458;BMP280;58438;51.200;7.252;2023-11-22T04:04:56;98560.84;;;4.45
64458;BMP280;58438;51.200;7.252;2023-11-22T04:07:43;98576.38;;;4.34
64458;BMP280;58438;51.200;7.252;2023-11-22T04:10:30;98596.31;;;4.40
64458;BMP280;58438;51.200;7.252;2023-11-22T04:13:17;98602.88;;;4.39
64458;BMP280;58438;51.200;7.252;2023-11-22T04:16:05;98616.41;;;4.36
64458;BMP280;58438;51.200;7.252;2023-11-22T04:18:54;98625.97;;;4.40
64458;BMP280;58438;51.200;7.252;2023-11-22T04:21:42;98645.88;;;4.23
64458;BMP280;58438;51.200;7.252;2023-11-22T04:24:30;98649.41;;;4.17
64458;BMP280;58438;51.200;7.252;2023-11-22T04:27:17;98656.53;;;4.30
64458;BMP280;58438;51.200;7.252;2023-11-22T04:30:05;98667.50;;;4.16
64458;BMP280;58438;51.200;7.252;2023-11-22T04:32:54;98678.63;;;3.88
64458;BMP280;58438;51.200;7.252;2023-11-22T04:35:42;98676.38;;;3.83
64458;BMP280;58438;51.200;7.252;2023-11-22T04:38:30;98675.22;;;3.84
64458;BMP280;58438;51.200;7.252;2023-11-22T04:41:17;98672.16;;;3.82
64458;BMP280;58438;51.200;7.252;2023-11-22T04:44:05;98676.00;;;3.81
64458;BMP280;58438;51.200;7.252;2023-11-22T04:46:52;98664.97;;;3.69
64458;BMP280;58438;51.200;7.252;2023-11-22T04:49:40;98678.44;;;3.69
64458;BMP280;58438;51.200;7.252;2023-11-22T04:52:26;98679.56;;;3.71
64458;BMP280;58438;51.200;7.252;2023-11-22T04:55:18;98683.78;;;3.72
64458;BMP280;58438;51.200;7.252;2023-11-22T04:58:06;98677.97;;;3.77
64458;BMP280;58438;51.200;7.252;2023-11-22T05:00:53;98670.81;;;3.64
64458;BMP280;58438;51.200;7.252;2023-11-22T05:03:40;98662.38;;;3.58
64458;BMP280;58438;51.200;7.252;2023-11-22T05:06:27;98663.19;;;3.55
64458;BMP280;58438;51.200;7.252;2023-11-22T05:09:15;98664.72;;;3.56
64458;BMP280;58438;51.200;7.252;2023-11-22T05:12:05;98665.53;;;3.53
64458;BMP280;58438;51.200;7.252;2023-11-22T05:14:52;98680.16;;;3.52
64458;BMP280;58438;51.200;7.252;2023-11-22T05:17:39;98690.47;;;3.57
64458;BMP280;58438;51.200;7.252;2023-11-22T05:20:27;98695.53;;;3.52
64458;BMP280;58438;51.200;7.252;2023-11-22T05:23:14;98700.13;;;3.55
64458;BMP280;58438;51.200;7.252;2023-11-22T05:26:01;98710.91;;;3.55
64458;BMP280;58438;51.200;7.252;2023-11-22T05:28:50;98717.88;;;3.49
64458;BMP280;58438;51.200;7.252;2023-11-22T05:31:39;98722.84;;;3.50
64458;BMP280;58438;51.200;7.252;2023-11-22T05:34:26;98724.78;;;3.50
64458;BMP280;58438;51.200;7.252;2023-11-22T05:37:13;98726.13;;;3.28
64458;BMP280;58438;51.200;7.252;2023-11-22T05:40:00;98733.41;;;3.27
64458;BMP280;58438;51.200;7.252;2023-11-22T05:42:48;98734.91;;;3.35
64458;BMP280;58438;51.200;7.252;2023-11-22T05:45:37;98742.19;;;3.38
64458;BMP280;58438;51.200;7.252;2023-11-22T05:48:24;98739.50;;;3.38
64458;BMP280;58438;51.200;7.252;2023-11-22T05:51:11;98747.22;;;3.36
64458;BMP280;58438;51.200;7.252;2023-11-22T05:53:58;98755.31;;;3.33
64458;BMP280;58438;51.200;7.252;2023-11-22T05:56:45;98757.63;;;3.27
64458;BMP280;58438;51.200;7.252;2023-11-22T05:59:32;98751.88;;;3.25
64458;BMP280;58438;51.200;7.252;2023-11-22T06:02:21;98764.22;;;3.19
64458;BMP280;58438;51.200;7.252;2023-11-22T06:05:08;98760.00;;;3.18
64458;BMP280;58438;51.200;7.252;2023-11-22T06:07:57;98766.56;;;3.17
64458;BMP280;58438;51.200;7.252;2023-11-22T06:10:44;98758.84;;;3.19
64458;BMP280;58438;51.200;7.252;2023-11-22T06:13:32;98747.41;;;3.12
64458;BMP280;58438;51.200;7.252;2023-11-22T06:16:19;98747.47;;;2.98
64458;BMP280;58438;51.200;7.252;2023-11-22T06:19:07;98743.19;;;3.07
64458;BMP280;58438;51.200;7.252;2023-11-22T06:21:54;98755.53;;;3.01
64458;BMP280;58438;51.200;7.252;2023-11-22T06:24:43;98763.22;;;2.99
64458;BMP280;58438;51.200;7.252;2023-11-22T06:27:30;98758.69;;;2.86
64458;BMP280;58438;51.200;7.252;2023-11-22T06:30:18;98755.94;;;2.89
64458;BMP280;58438;51.200;7.252;2023-11-22T06:33:06;98762.53;;;2.88
64458;BMP280;58438;51.200;7.252;2023-11-22T06:35:55;98765.22;;;2.85
64458;BMP280;58438;51.200;7.252;2023-11-22T06:38:42;98767.94;;;2.82
64458;BMP280;58438;51.200;7.252;2023-11-22T06:41:29;98772.56;;;2.78
64458;BMP280;58438;51.200;7.252;2023-11-22T06:44:16;98762.97;;;2.80
64458;BMP280;58438;51.200;7.252;2023-11-22T06:47:04;98767.56;;;2.76
64458;BMP280;58438;51.200;7.252;2023-11-22T06:49:52;98770.25;;;2.80
64458;BMP280;58438;51.200;7.252;2023-11-22T06:52:40;98779.13;;;2.70
64458;BMP280;58438;51.200;7.252;2023-11-22T06:55:27;98779.88;;;2.67
64458;BMP280;58438;51.200;7.252;2023-11-22T06:58:17;98776.81;;;2.65
64458;BMP280;58438;51.200;7.252;2023-11-22T07:01:05;98781.50;;;2.57
64458;BMP280;58438;51.200;7.252;2023-11-22T07:03:52;98777.63;;;2.62
64458;BMP280;58438;51.200;7.252;2023-11-22T07:06:40;98778.81;;;2.57
64458;BMP280;58438;51.200;7.252;2023-11-22T07:09:30;98771.50;;;2.54
64458;BMP280;58438;51.200;7.252;2023-11-22T07:12:18;98773.81;;;2.56
64458;BMP280;58438;51.200;7.252;2023-11-22T07:15:06;98777.69;;;2.48
64458;BMP280;58438;51.200;7.252;2023-11-22T07:17:55;98796.50;;;2.51
64458;BMP280;58438;51.200;7.252;2023-11-22T07:20:42;98801.09;;;2.40
64458;BMP280;58438;51.200;7.252;2023-11-22T07:23:30;98803.84;;;2.37
64458;BMP280;58438;51.200;7.252;2023-11-22T07:26:18;98802.69;;;2.38
64458;BMP280;58438;51.200;7.252;2023-11-22T07:29:06;98810.34;;;2.36
64458;BMP280;58438;51.200;7.252;2023-11-22T07:31:53;98803.78;;;2.40
64458;BMP280;58438;51.200;7.252;2023-11-22T07:34:41;98819.19;;;2.29
64458;BMP280;58438;51.200;7.252;2023-11-22T07:37:28;98832.25;;;2.27
64458;BMP280;58438;51.200;7.252;2023-11-22T07:40:17;98836.13;;;2.23
64458;BMP280;58438;51.200;7.252;2023-11-22T07:43:06;98840.72;;;2.26
64458;BMP280;58438;51.200;7.252;2023-11-22T07:45:53;98849.53;;;2.26
64458;BMP280;58438;51.200;7.252;2023-11-22T07:48:41;98850.25;;;2.30
64458;BMP280;58438;51.200;7.252;2023-11-22T07:51:28;98851.41;;;2.33
64458;BMP280;58438;51.200;7.252;2023-11-22T07:54:16;98856.78;;;2.33
64458;BMP280;58438;51.200;7.252;2023-11-22T07:57:03;98856.00;;;2.32
64458;BMP280;58438;51.200;7.252;2023-11-22T07:59:51;98849.88;;;2.32
64458;BMP280;58438;51.200;7.252;2023-11-22T08:02:41;98845.28;;;2.29
64458;BMP280;58438;51.200;7.252;2023-11-22T08:05:29;98844.13;;;2.30
64458;BMP280;58438;51.200;7.252;2023-11-22T08:08:20;98825.72;;;2.28
64458;BMP280;58438;51.200;7.252;2023-11-22T08:11:07;98815.34;;;2.30
64458;BMP280;58438;51.200;7.252;2023-11-22T08:14:00;98805.38;;;2.34
64458;BMP280;58438;51.200;7.252;2023-11-22T08:16:50;98791.59;;;2.25
64458;BMP280;58438;51.200;7.252;2023-11-22T08:19:37;98783.88;;;2.27
64458;BMP280;58438;51.200;7.252;2023-11-22T08:22:25;98779.28;;;2.21
64458;BMP280;58438;51.200;7.252;2023-11-22T08:25:15;98769.66;;;2.34
64458;BMP280;58438;51.200;7.252;2023-11-22T08:28:02;98783.88;;;2.31
64458;BMP280;58438;51.200;7.252;2023-11-22T08:30:49;98788.47;;;2.34
64458;BMP280;58438;51.200;7.252;2023-11-22T08:33:38;98804.97;;;2.36
64458;BMP280;58438;51.200;7.252;2023-11-22T08:36:25;98806.88;;;2.39
64458;BMP280;58438;51.200;7.252;2023-11-22T08:39:14;98800.34;;;2.43
64458;BMP280;58438;51.200;7.252;2023-11-22T08:42:01;98816.91;;;2.21
64458;BMP280;58438;51.200;7.252;2023-11-22T08:44:49;98810.78;;;2.03
64458;BMP280;58438;51.200;7.252;2023-11-22T08:47:36;98818.06;;;2.13
64458;BMP280;58438;51.200;7.252;2023-11-22T08:50:24;98816.91;;;2.17
64458;BMP280;58438;51.200;7.252;2023-11-22T08:53:12;98821.53;;;2.24
64458;BMP280;58438;51.200;7.252;2023-11-22T08:55:59;98832.97;;;2.38
64458;BMP280;58438;51.200;7.252;2023-11-22T08:58:46;98859.47;;;2.47
64458;BMP280;58438;51.200;7.252;2023-11-22T09:01:33;98879.03;;;2.54
64458;BMP280;58438;51.200;7.252;2023-11-22T09:04:20;98891.25;;;2.76
64458;BMP280;58438;51.200;7.252;2023-11-22T09:07:11;98893.56;;;2.85
64458;BMP280;58438;51.200;7.252;2023-11-22T09:10:00;98893.09;;;2.96
64458;BMP280;58438;51.200;7.252;2023-11-22T09:12:55;98902.69;;;2.97
64458;BMP280;58438;51.200;7.252;2023-11-22T09:15:45;98914.94;;;3.12
64458;BMP280;58438;51.200;7.252;2023-11-22T09:18:32;98922.56;;;3.31
64458;BMP280;58438;51.200;7.252;2023-11-22T09:21:19;98921.00;;;3.41
64458;BMP280;58438;51.200;7.252;2023-11-22T09:24:08;98920.94;;;3.44
64458;BMP280;58438;51.200;7.252;2023-11-22T09:26:56;98927.84;;;3.49
64458;BMP280;58438;51.200;7.252;2023-11-22T09:29:43;98944.72;;;3.56
64458;BMP280;58438;51.200;7.252;2023-11-22T09:32:31;98945.09;;;3.62
64458;BMP280;58438;51.200;7.252;2023-11-22T09:35:18;98977.03;;;3.60
64458;BMP280;58438;51.200;7.252;2023-11-22T09:38:06;98977.75;;;3.71
64458;BMP280;58438;51.200;7.252;2023-11-22T09:40:57;98989.72;;;3.66
64458;BMP280;58438;51.200;7.252;2023-11-22T09:43:45;98983.56;;;3.62
64458;BMP280;58438;51.200;7.252;2023-11-22T09:46:35;99002.03;;;3.60
64458;BMP280;58438;51.200;7.252;2023-11-22T09:49:24;98990.84;;;3.65
64458;BMP280;58438;51.200;7.252;2023-11-22T09:52:12;98982.72;;;3.69
64458;BMP280;58438;51.200;7.252;2023-11-22T09:55:02;98963.50;;;3.70
64458;BMP280;58438;51.200;7.252;2023-11-22T09:57:51;98974.59;;;3.79
64458;BMP280;58438;51.200;7.252;2023-11-22T10:00:40;98988.88;;;3.69
64458;BMP280;58438;51.200;7.252;2023-11-22T10:03:27;98989.31;;;3.64
64458;BMP280;58438;51.200;7.252;2023-11-22T10:06:15;98985.41;;;3.72
64458;BMP280;58438;51.200;7.252;2023-11-22T10:09:03;98990.81;;;3.69
64458;BMP280;58438;51.200;7.252;2023-11-22T10:11:56;98988.50;;;3.74
64458;BMP280;58438;51.200;7.252;2023-11-22T10:14:46;98978.84;;;3.77
64458;BMP280;58438;51.200;7.252;2023-11-22T10:17:33;98993.50;;;3.69
64458;BMP280;58438;51.200;7.252;2023-11-22T10:20:20;98992.34;;;3.70
64458;BMP280;58438;51.200;7.252;2023-11-22T10:23:08;99000.81;;;3.75
64458;BMP280;58438;51.200;7.252;2023-11-22T10:25:55;99000.81;;;3.72
64458;BMP280;58438;51.200;7.252;2023-11-22T10:28:43;99012.69;;;3.81
64458;BMP280;58438;51.200;7.252;2023-11-22T10:31:33;99003.50;;;3.75
64458;BMP280;58438;51.200;7.252;2023-11-22T10:34:21;99005.75;;;3.84
64458;BMP280;58438;51.200;7.252;2023-11-22T10:37:08;99007.72;;;3.76
64458;BMP280;58438;51.200;7.252;2023-11-22T10:39:56;99003.06;;;3.84
64458;BMP280;58438;51.200;7.252;2023-11-22T10:42:42;99008.81;;;3.89
64458;BMP280;58438;51.200;7.252;2023-11-22T10:45:30;99012.66;;;3.88
64458;BMP280;58438;51.200;7.252;2023-11-22T10:48:19;99010.31;;;3.97
64458;BMP280;58438;51.200;7.252;2023-11-22T10:51:07;99013.75;;;3.98
64458;BMP280;58438;51.200;7.252;2023-11-22T10:53:57;99021.44;;;3.99
64458;BMP280;58438;51.200;7.252;2023-11-22T10:56:46;99026.03;;;4.02
64458;BMP280;58438;51.200;7.252;2023-11-22T10:59:36;99031.78;;;4.04
64458;BMP280;58438;51.200;7.252;2023-11-22T11:02:24;99022.13;;;4.10
64458;BMP280;58438;51.200;7.252;2023-11-22T11:05:16;99016.72;;;4.10
64458;BMP280;58438;51.200;7.252;2023-11-22T11:08:07;99012.13;;;4.11
64458;BMP280;58438;51.200;7.252;2023-11-22T11:10:56;99021.34;;;4.17
64458;BMP280;58438;51.200;7.252;2023-11-22T11:13:45;99026.69;;;4.20
64458;BMP280;58438;51.200;7.252;2023-11-22T11:16:34;99018.22;;;4.18
64458;BMP280;58438;51.200;7.252;2023-11-22T11:19:23;99031.28;;;4.27
64458;BMP280;58438;51.200;7.252;2023-11-22T11:22:12;99046.28;;;4.28
64458;BMP280;58438;51.200;7.252;2023-11-22T11:25:05;99036.66;;;4.27
64458;BMP280;58438;51.200;7.252;2023-11-22T11:27:57;99029.22;;;4.41
64458;BMP280;58438;51.200;7.252;2023-11-22T11:30:45;99011.84;;;4.46
64458;BMP280;58438;51.200;7.252;2023-11-22T11:33:34;99016.41;;;4.56
64458;BMP280;58438;51.200;7.252;2023-11-22T11:36:22;99019.81;;;4.63
64458;BMP280;58438;51.200;7.252;2023-11-22T11:39:13;99009.72;;;4.71
64458;BMP280;58438;51.200;7.252;2023-11-22T11:42:07;99003.91;;;4.72
64458;BMP280;58438;51.200;7.252;2023-11-22T11:45:03;99000.72;;;4.84
64458;BMP280;58438;51.200;7.252;2023-11-22T11:47:53;99007.56;;;4.92
64458;BMP280;58438;51.200;7.252;2023-11-22T11:50:40;98985.94;;;4.96
64458;BMP280;58438;51.200;7.252;2023-11-22T11:53:27;98997.41;;;5.03
64458;BMP280;58438;51.200;7.252;2023-11-22T11:56:18;99015.88;;;5.08
64458;BMP280;58438;51.200;7.252;2023-11-22T11:59:06;99016.44;;;5.26
64458;BMP280;58438;51.200;7.252;2023-11-22T12:01:54;99002.91;;;5.29
64458;BMP280;58438;51.200;7.252;2023-11-22T12:04:43;98996.28;;;5.34
64458;BMP280;58438;51.200;7.252;2023-11-22T12:07:30;98998.53;;;5.39
64458;BMP280;58438;51.200;7.252;2023-11-22T12:10:17;99004.69;;;5.43
64458;BMP280;58438;51.200;7.252;2023-11-22T12:13:06;98986.78;;;5.52
64458;BMP280;58438;51.200;7.252;2023-11-22T12:15:54;98979.56;;;5.46
64458;BMP280;58438;51.200;7.252;2023-11-22T12:18:41;98960.31;;;5.44
64458;BMP280;58438;51.200;7.252;2023-11-22T12:21:29;98962.06;;;5.54
64458;BMP280;58438;51.200;7.252;2023-11-22T12:24:17;98949.34;;;5.54
64458;BMP280;58438;51.200;7.252;2023-11-22T12:27:04;98935.88;;;5.51
64458;BMP280;58438;51.200;7.252;2023-11-22T12:29:57;98918.81;;;5.57
64458;BMP280;58438;51.200;7.252;2023-11-22T12:32:45;98905.41;;;5.77
64458;BMP280;58438;51.200;7.252;2023-11-22T12:35:34;98896.94;;;5.75
64458;BMP280;58438;51.200;7.252;2023-11-22T12:38:23;98892.16;;;5.82
64458;BMP280;58438;51.200;7.252;2023-11-22T12:41:14;98900.59;;;5.88
64458;BMP280;58438;51.200;7.252;2023-11-22T12:44:01;98897.06;;;5.91
64458;BMP280;58438;51.200;7.252;2023-11-22T12:46:50;98883.44;;;5.98
64458;BMP280;58438;51.200;7.252;2023-11-22T12:58:02;98892.16;;;6.28
64458;BMP280;58438;51.200;7.252;2023-11-22T13:45:30;98904.81;;;6.54
64458;BMP280;58438;51.200;7.252;2023-11-22T13:48:17;98903.16;;;6.41
64458;BMP280;58438;51.200;7.252;2023-11-22T13:51:04;98891.41;;;6.28
64458;BMP280;58438;51.200;7.252;2023-11-22T13:53:56;98900.50;;;6.18
64458;BMP280;58438;51.200;7.252;2023-11-22T13:56:43;98900.13;;;6.16
64458;BMP280;58438;51.200;7.252;2023-11-22T13:59:31;98891.66;;;6.14
64458;BMP280;58438;51.200;7.252;2023-11-22T14:02:19;98893.13;;;6.18
64458;BMP280;58438;51.200;7.252;2023-11-22T14:05:07;98901.06;;;6.06
64458;BMP280;58438;51.200;7.252;2023-11-22T14:07:54;98904.88;;;6.08
64458;BMP280;58438;51.200;7.252;2023-11-22T14:10:41;98903.00;;;6.05
64458;BMP280;58438;51.200;7.252;2023-11-22T14:13:31;98904.84;;;5.89
64458;BMP280;58438;51.200;7.252;2023-11-22T14:16:18;98897.56;;;5.82
64458;BMP280;58438;51.200;7.252;2023-11-22T14:19:06;98895.19;;;5.88
64458;BMP280;58438;51.200;7.252;2023-11-22T14:21:54;98888.09;;;5.94
64458;BMP280;58438;51.200;7.252;2023-11-22T14:24:41;98904.00;;;5.92
64458;BMP280;58438;51.200;7.252;2023-11-22T14:27:30;98896.81;;;5.82
64458;BMP280;58438;51.200;7.252;2023-11-22T14:30:19;98902.22;;;5.82
64458;BMP280;58438;51.200;7.252;2023-11-22T14:33:07;98896.47;;;5.80
64458;BMP280;58438;51.200;7.252;2023-11-22T14:36:00;98903.88;;;5.76
64458;BMP280;58438;51.200;7.252;2023-11-22T14:38:47;98900.81;;;5.74
64458;BMP280;58438;51.200;7.252;2023-11-22T14:41:40;98901.63;;;5.71
64458;BMP280;58438;51.200;7.252;2023-11-22T14:44:27;98906.28;;;5.70
64458;BMP280;58438;51.200;7.252;2023-11-22T14:47:15;98902.91;;;5.63
64458;BMP280;58438;51.200;7.252;2023-11-22T14:50:06;98902.09;;;5.66
64458;BMP280;58438;51.200;7.252;2023-11-22T14:52:57;98911.94;;;5.53
64458;BMP280;58438;51.200;7.252;2023-11-22T14:55:45;98918.09;;;5.53
64458;BMP280;58438;51.200;7.252;2023-11-22T14:58:32;98915.81;;;5.52
64458;BMP280;58438;51.200;7.252;2023-11-22T15:01:20;98918.84;;;5.54
64458;BMP280;58438;51.200;7.252;2023-11-22T15:04:09;98909.28;;;5.49
64458;BMP280;58438;51.200;7.252;2023-11-22T15:06:56;98916.59;;;5.49
64458;BMP280;58438;51.200;7.252;2023-11-22T15:09:45;98910.13;;;5.46
64458;BMP280;58438;51.200;7.252;2023-11-22T15:12:33;98921.66;;;5.47
64458;BMP280;58438;51.200;7.252;2023-11-22T15:15:20;98907.53;;;5.36
64458;BMP280;58438;51.200;7.252;2023-11-22T15:18:10;98912.59;;;5.34
64458;BMP280;58438;51.200;7.252;2023-11-22T15:20:58;98900.63;;;5.35
64458;BMP280;58438;51.200;7.252;2023-11-22T15:23:46;98910.19;;;5.13
64458;BMP280;58438;51.200;7.252;2023-11-22T15:26:35;98914.75;;;5.16
64458;BMP280;58438;51.200;7.252;2023-11-22T15:29:22;98908.97;;;5.17
64458;BMP280;58438;51.200;7.252;2023-11-22T15:32:09;98916.31;;;5.13
64458;BMP280;58438;51.200;7.252;2023-11-22T15:34:56;98910.91;;;5.17
64458;BMP280;58438;51.200;7.252;2023-11-22T15:37:43;98919.50;;;5.08
64458;BMP280;58438;51.200;7.252;2023-11-22T15:40:30;98927.97;;;5.07
64458;BMP280;58438;51.200;7.252;2023-11-22T15:43:18;98937.25;;;5.06
64458;BMP280;58438;51.200;7.252;2023-11-22T15:46:06;98941.28;;;4.91
64458;BMP280;58438;51.200;7.252;2023-11-22T15:48:54;98936.66;;;4.88
64458;BMP280;58438;51.200;7.252;2023-11-22T15:51:41;98942.03;;;4.92
64458;BMP280;58438;51.200;7.252;2023-11-22T15:54:28;98931.28;;;4.88
64458;BMP280;58438;51.200;7.252;2023-11-22T15:57:15;98928.09;;;4.97
64458;BMP280;58438;51.200;7.252;2023-11-22T16:00:04;98934.72;;;4.92
64458;BMP280;58438;51.200;7.252;2023-11-22T16:02:55;98929.28;;;4.96
64458;BMP280;58438;51.200;7.252;2023-11-22T16:05:44;98918.19;;;4.87
64458;BMP280;58438;51.200;7.252;2023-11-22T16:08:36;98910.16;;;4.83
64458;BMP280;58438;51.200;7.252;2023-11-22T16:11:23;98907.47;;;4.83
64458;BMP280;58438;51.200;7.252;2023-11-22T16:14:11;98905.16;;;4.82
64458;BMP280;58438;51.200;7.252;2023-11-22T16:17:02;98886.69;;;4.77
64458;BMP280;58438;51.200;7.252;2023-11-22T16:19:50;98882.84;;;4.81
64458;BMP280;58438;51.200;7.252;2023-11-22T16:22:37;98876.34;;;4.75
64458;BMP280;58438;51.200;7.252;2023-11-22T16:25:25;98870.56;;;4.73
64458;BMP280;58438;51.200;7.252;2023-11-22T16:28:12;98877.47;;;4.78
64458;BMP280;58438;51.200;7.252;2023-11-22T16:31:00;98884.50;;;4.68
64458;BMP280;58438;51.200;7.252;2023-11-22T16:33:50;98874.38;;;4.76
64458;BMP280;58438;51.200;7.252;2023-11-22T16:36:38;98869.91;;;4.66
64458;BMP280;58438;51.200;7.252;2023-11-22T16:39:25;98872.88;;;4.71
64458;BMP280;58438;51.200;7.252;2023-11-22T16:42:14;98865.56;;;4.72
64458;BMP280;58438;51.200;7.252;2023-11-22T16:45:04;98870.28;;;4.64
64458;BMP280;58438;51.200;7.252;2023-11-22T16:47:52;98865.34;;;4.59
64458;BMP280;58438;51.200;7.252;2023-11-22T16:50:42;98864.91;;;4.64
64458;BMP280;58438;51.200;7.252;2023-11-22T16:53:29;98880.00;;;4.58
64458;BMP280;58438;51.200;7.252;2023-11-22T16:56:16;98895.03;;;4.56
64458;BMP280;58438;51.200;7.252;2023-11-22T16:59:05;98901.63;;;4.51
64458;BMP280;58438;51.200;7.252;2023-11-22T17:01:53;98890.91;;;4.48
64458;BMP280;58438;51.200;7.252;2023-11-22T17:04:41;98882.38;;;4.49
64458;BMP280;58438;51.200;7.252;2023-11-22T17:07:30;98879.41;;;4.40
64458;BMP280;58438;51.200;7.252;2023-11-22T17:10:18;98874.75;;;4.44
64458;BMP280;58438;51.200;7.252;2023-11-22T17:13:27;98867.03;;;4.46
64458;BMP280;58438;51.200;7.252;2023-11-22T17:16:14;98875.97;;;4.40